sensor_id;sensor_type;location;lat;lon;timestamp;pressure;altitude;pressure_sealevel;temperature;humidity
12775;BME280;6451;42.630;23.382;2022-09-12T00:01:17;94230.63;;;15.05;100.00
12775;BME280;6451;42.630;23.382;2022-09-12T00:03:45;94232.47;;;14.93;100.00
12775;BME280;6451;42.630;23.382;2022-09-12T00:06:15;94237.44;;;14.84;100.00
12775;BME280;6451;42.630;23.382;2022-09-12T00:08:42;94233.22;;;14.90;100.00
12775;BME280;6451;42.630;23.382;2022-09-12T00:11:10;94244.59;;;14.96;100.00
12775;BME280;6451;42.630;23.382;2022-09-12T00:13:40;94238.28;;;14.88;100.00
12775;BME280;6451;42.630;23.382;2022-09-12T00:16:11;94242.97;;;14.88;100.00
12775;BME280;6451;42.630;23.382;2022-09-12T00:18:39;94252.72;;;14.89;100.00
12775;BME280;6451;42.630;23.382;2022-09-12T00:21:06;94233.06;;;14.76;100.00
12775;BME280;6451;42.630;23.382;2022-09-12T00:23:32;94245.56;;;14.77;100.00
12775;BME280;6451;42.630;23.382;2022-09-12T00:26:03;94253.38;;;14.75;100.00
12775;BME280;6451;42.630;23.382;2022-09-12T00:28:30;94257.66;;;14.76;100.00
12775;BME280;6451;42.630;23.382;2022-09-12T00:30:58;94237.97;;;14.60;100.00
12775;BME280;6451;42.630;23.382;2022-09-12T00:33:25;94248.22;;;14.70;100.00
12775;BME280;6451;42.630;23.382;2022-09-12T00:35:52;94247.81;;;14.68;100.00
12775;BME280;6451;42.630;23.382;2022-09-12T00:38:19;94239.16;;;14.59;100.00
12775;BME280;6451;42.630;23.382;2022-09-12T00:40:47;94249.78;;;14.67;100.00
12775;BME280;6451;42.630;23.382;2022-09-12T00:43:31;94250.88;;;14.63;100.00
12775;BME280;6451;42.630;23.382;2022-09-12T00:46:02;94247.03;;;14.67;100.00
12775;BME280;6451;42.630;23.382;2022-09-12T00:48:32;94243.38;;;14.56;100.00
12775;BME280;6451;42.630;23.382;2022-09-12T00:51:01;94252.44;;;14.64;100.00
12775;BME280;6451;42.630;23.382;2022-09-12T00:53:28;94235.50;;;14.48;100.00
12775;BME280;6451;42.630;23.382;2022-09-12T00:55:56;94243.84;;;14.62;100.00
12775;BME280;6451;42.630;23.382;2022-09-12T00:58:26;94162.38;;;13.97;100.00
12775;BME280;6451;42.630;23.382;2022-09-12T01:00:55;94241.88;;;14.59;100.00
12775;BME280;6451;42.630;23.382;2022-09-12T01:03:25;94248.44;;;14.54;100.00
12775;BME280;6451;42.630;23.382;2022-09-12T01:05:58;94222.22;;;14.46;100.00
12775;BME280;6451;42.630;23.382;2022-09-12T01:08:27;94231.66;;;14.52;100.00
12775;BME280;6451;42.630;23.382;2022-09-12T01:10:55;94238.22;;;14.48;100.00
12775;BME280;6451;42.630;23.382;2022-09-12T01:13:23;94230.75;;;14.44;100.00
12775;BME280;6451;42.630;23.382;2022-09-12T01:15:51;94222.56;;;14.44;100.00
12775;BME280;6451;42.630;23.382;2022-09-12T01:18:23;94224.25;;;14.53;100.00
12775;BME280;6451;42.630;23.382;2022-09-12T01:21:07;94217.81;;;14.38;100.00
12775;BME280;6451;42.630;23.382;2022-09-12T01:27:06;94224.06;;;14.38;100.00
12775;BME280;6451;42.630;23.382;2022-09-12T01:30:16;94223.94;;;14.28;100.00
12775;BME280;6451;42.630;23.382;2022-09-12T01:32:58;94225.06;;;14.23;100.00
12775;BME280;6451;42.630;23.382;2022-09-12T01:35:32;94225.72;;;14.13;100.00
12775;BME280;6451;42.630;23.382;2022-09-12T01:38:09;94228.81;;;14.11;100.00
12775;BME280;6451;42.630;23.382;2022-09-12T01:40:42;94231.59;;;14.15;100.00
12775;BME280;6451;42.630;23.382;2022-09-12T01:43:16;94227.06;;;14.26;100.00
12775;BME280;6451;42.630;23.382;2022-09-12T01:45:52;94210.59;;;14.19;100.00
12775;BME280;6451;42.630;23.382;2022-09-12T01:48:23;94225.34;;;14.14;100.00
12775;BME280;6451;42.630;23.382;2022-09-12T01:50:56;94226.44;;;14.10;100.00
12775;BME280;6451;42.630;23.382;2022-09-12T01:53:26;94187.84;;;13.78;100.00
12775;BME280;6451;42.630;23.382;2022-09-12T01:56:01;94210.75;;;14.00;100.00
12775;BME280;6451;42.630;23.382;2022-09-12T01:58:38;94161.63;;;13.66;100.00
12775;BME280;6451;42.630;23.382;2022-09-12T02:01:11;94200.16;;;13.95;100.00
12775;BME280;6451;42.630;23.382;2022-09-12T02:03:43;94209.53;;;13.97;100.00
12775;BME280;6451;42.630;23.382;2022-09-12T02:06:15;94215.72;;;13.94;100.00
12775;BME280;6451;42.630;23.382;2022-09-12T02:08:47;94197.25;;;13.80;100.00
12775;BME280;6451;42.630;23.382;2022-09-12T02:11:17;94196.91;;;13.85;100.00
12775;BME280;6451;42.630;23.382;2022-09-12T02:13:49;94195.72;;;13.83;100.00
12775;BME280;6451;42.630;23.382;2022-09-12T02:16:24;94212.97;;;13.90;100.00
12775;BME280;6451;42.630;23.382;2022-09-12T02:18:57;94211.31;;;13.82;100.00
12775;BME280;6451;42.630;23.382;2022-09-12T02:21:27;94231.56;;;13.81;100.00
12775;BME280;6451;42.630;23.382;2022-09-12T02:23:58;94227.25;;;13.80;100.00
12775;BME280;6451;42.630;23.382;2022-09-12T02:26:31;94237.09;;;13.88;100.00
12775;BME280;6451;42.630;23.382;2022-09-12T02:29:00;94210.00;;;13.73;100.00
12775;BME280;6451;42.630;23.382;2022-09-12T02:31:33;94207.63;;;13.71;100.00
12775;BME280;6451;42.630;23.382;2022-09-12T02:34:09;94228.38;;;13.79;100.00
12775;BME280;6451;42.630;23.382;2022-09-12T02:36:47;94221.25;;;13.71;100.00
12775;BME280;6451;42.630;23.382;2022-09-12T02:39:17;94232.22;;;13.75;100.00
12775;BME280;6451;42.630;23.382;2022-09-12T02:41:46;94234.19;;;13.74;100.00
12775;BME280;6451;42.630;23.382;2022-09-12T02:44:13;94221.59;;;13.66;100.00
12775;BME280;6451;42.630;23.382;2022-09-12T02:46:44;94235.00;;;13.78;100.00
12775;BME280;6451;42.630;23.382;2022-09-12T02:49:13;94234.59;;;13.76;100.00
12775;BME280;6451;42.630;23.382;2022-09-12T02:51:42;94217.72;;;13.67;100.00
12775;BME280;6451;42.630;23.382;2022-09-12T02:54:11;94217.19;;;13.58;100.00
12775;BME280;6451;42.630;23.382;2022-09-12T02:56:40;94220.94;;;13.76;100.00
12775;BME280;6451;42.630;23.382;2022-09-12T02:59:09;94221.59;;;13.66;100.00
12775;BME280;6451;42.630;23.382;2022-09-12T03:01:48;94226.19;;;13.62;100.00
12775;BME280;6451;42.630;23.382;2022-09-12T03:04:30;94212.53;;;13.58;100.00
12775;BME280;6451;42.630;23.382;2022-09-12T03:07:11;94246.28;;;13.77;100.00
12775;BME280;6451;42.630;23.382;2022-09-12T03:09:45;94252.03;;;13.72;100.00
12775;BME280;6451;42.630;23.382;2022-09-12T03:12:22;94246.59;;;13.72;100.00
12775;BME280;6451;42.630;23.382;2022-09-12T03:15:02;94257.59;;;13.79;100.00
12775;BME280;6451;42.630;23.382;2022-09-12T03:17:42;94251.25;;;13.71;100.00
12775;BME280;6451;42.630;23.382;2022-09-12T03:20:14;94247.22;;;13.61;100.00
12775;BME280;6451;42.630;23.382;2022-09-12T03:22:50;94248.97;;;13.73;100.00
12775;BME280;6451;42.630;23.382;2022-09-12T03:25:21;94243.94;;;13.75;100.00
12775;BME280;6451;42.630;23.382;2022-09-12T03:27:54;94254.06;;;13.75;100.00
12775;BME280;6451;42.630;23.382;2022-09-12T03:30:21;94235.16;;;13.62;100.00
12775;BME280;6451;42.630;23.382;2022-09-12T03:32:51;94243.06;;;13.71;100.00
12775;BME280;6451;42.630;23.382;2022-09-12T03:35:20;94239.53;;;13.67;100.00
12775;BME280;6451;42.630;23.382;2022-09-12T03:37:48;94246.50;;;13.64;100.00
12775;BME280;6451;42.630;23.382;2022-09-12T03:40:16;94247.59;;;13.60;100.00
12775;BME280;6451;42.630;23.382;2022-09-12T03:42:42;94218.94;;;13.43;100.00
12775;BME280;6451;42.630;23.382;2022-09-12T03:45:10;94250.34;;;13.60;100.00
12775;BME280;6451;42.630;23.382;2022-09-12T03:47:37;94218.97;;;13.47;100.00
12775;BME280;6451;42.630;23.382;2022-09-12T03:50:06;94243.31;;;13.59;100.00
12775;BME280;6451;42.630;23.382;2022-09-12T03:52:33;94237.84;;;13.59;100.00
12775;BME280;6451;42.630;23.382;2022-09-12T03:55:00;94246.75;;;13.56;100.00
12775;BME280;6451;42.630;23.382;2022-09-12T03:57:27;94242.41;;;13.51;100.00
12775;BME280;6451;42.630;23.382;2022-09-12T03:59:54;94242.47;;;13.55;100.00
12775;BME280;6451;42.630;23.382;2022-09-12T04:02:21;94242.63;;;13.66;100.00
12775;BME280;6451;42.630;23.382;2022-09-12T04:04:48;94220.91;;;13.46;100.00
12775;BME280;6451;42.630;23.382;2022-09-12T04:07:17;94245.66;;;13.60;100.00
12775;BME280;6451;42.630;23.382;2022-09-12T04:09:45;94244.47;;;13.58;100.00
12775;BME280;6451;42.630;23.382;2022-09-12T04:12:11;94251.91;;;13.61;100.00
12775;BME280;6451;42.630;23.382;2022-09-12T04:14:39;94219.72;;;13.44;100.00
12775;BME280;6451;42.630;23.382;2022-09-12T04:17:06;94217.72;;;13.41;100.00
12775;BME280;6451;42.630;23.382;2022-09-12T04:19:33;94261.06;;;13.76;100.00
12775;BME280;6451;42.630;23.382;2022-09-12T04:22:00;94253.78;;;13.83;100.00
12775;BME280;6451;42.630;23.382;2022-09-12T04:24:29;94254.56;;;13.84;100.00
12775;BME280;6451;42.630;23.382;2022-09-12T04:26:56;94224.44;;;13.73;100.00
12775;BME280;6451;42.630;23.382;2022-09-12T04:29:23;94251.56;;;13.93;100.00
12775;BME280;6451;42.630;23.382;2022-09-12T04:31:50;94257.50;;;13.98;100.00
12775;BME280;6451;42.630;23.382;2022-09-12T04:34:17;94261.38;;;13.97;100.00
12775;BME280;6451;42.630;23.382;2022-09-12T04:36:44;94263.81;;;14.06;100.00
12775;BME280;6451;42.630;23.382;2022-09-12T04:39:10;94264.72;;;14.13;100.00
12775;BME280;6451;42.630;23.382;2022-09-12T04:41:39;94262.75;;;14.14;100.00
12775;BME280;6451;42.630;23.382;2022-09-12T04:44:07;94251.78;;;14.10;100.00
12775;BME280;6451;42.630;23.382;2022-09-12T04:46:38;94263.34;;;14.30;100.00
12775;BME280;6451;42.630;23.382;2022-09-12T04:49:05;94247.19;;;14.18;100.00
12775;BME280;6451;42.630;23.382;2022-09-12T04:51:34;94262.19;;;14.31;100.00
12775;BME280;6451;42.630;23.382;2022-09-12T04:54:04;94264.59;;;14.36;100.00
12775;BME280;6451;42.630;23.382;2022-09-12T04:56:32;94264.25;;;14.41;100.00
12775;BME280;6451;42.630;23.382;2022-09-12T04:59:00;94254.78;;;14.32;100.00
12775;BME280;6451;42.630;23.382;2022-09-12T05:01:28;94254.22;;;14.49;100.00
12775;BME280;6451;42.630;23.382;2022-09-12T05:03:56;94248.78;;;14.49;100.00
12775;BME280;6451;42.630;23.382;2022-09-12T05:06:25;94260.22;;;14.62;100.00
12775;BME280;6451;42.630;23.382;2022-09-12T05:08:53;94251.66;;;14.63;100.00
12775;BME280;6451;42.630;23.382;2022-09-12T05:11:25;94258.06;;;14.78;100.00
12775;BME280;6451;42.630;23.382;2022-09-12T05:13:53;94249.63;;;14.90;100.00
12775;BME280;6451;42.630;23.382;2022-09-12T05:16:22;94246.16;;;14.97;100.00
12775;BME280;6451;42.630;23.382;2022-09-12T05:18:50;94243.13;;;15.06;100.00
12775;BME280;6451;42.630;23.382;2022-09-12T05:21:19;94252.63;;;15.19;100.00
12775;BME280;6451;42.630;23.382;2022-09-12T05:23:49;94252.31;;;15.31;100.00
12775;BME280;6451;42.630;23.382;2022-09-12T05:26:16;94255.84;;;15.32;100.00
12775;BME280;6451;42.630;23.382;2022-09-12T05:28:45;94248.06;;;15.34;100.00
12775;BME280;6451;42.630;23.382;2022-09-12T05:31:14;94249.13;;;15.22;100.00
12775;BME280;6451;42.630;23.382;2022-09-12T05:33:44;94228.88;;;15.30;100.00
12775;BME280;6451;42.630;23.382;2022-09-12T05:36:15;94200.69;;;15.19;100.00
12775;BME280;6451;42.630;23.382;2022-09-12T05:38:42;94246.72;;;15.61;100.00
12775;BME280;6451;42.630;23.382;2022-09-12T05:41:11;94245.06;;;15.53;100.00
12775;BME280;6451;42.630;23.382;2022-09-12T05:43:39;94226.34;;;15.58;100.00
12775;BME280;6451;42.630;23.382;2022-09-12T05:46:08;94252.53;;;15.60;100.00
12775;BME280;6451;42.630;23.382;2022-09-12T05:48:35;94238.53;;;15.65;100.00
12775;BME280;6451;42.630;23.382;2022-09-12T05:51:08;94237.81;;;15.75;100.00
12775;BME280;6451;42.630;23.382;2022-09-12T05:53:36;94237.47;;;15.80;100.00
12775;BME280;6451;42.630;23.382;2022-09-12T05:56:06;94220.50;;;15.56;100.00
12775;BME280;6451;42.630;23.382;2022-09-12T05:58:34;94215.06;;;15.64;100.00
12775;BME280;6451;42.630;23.382;2022-09-12T06:01:04;94235.63;;;16.02;100.00
12775;BME280;6451;42.630;23.382;2022-09-12T06:03:32;94222.34;;;16.07;100.00
12775;BME280;6451;42.630;23.382;2022-09-12T06:06:01;94211.81;;;16.06;100.00
12775;BME280;6451;42.630;23.382;2022-09-12T06:08:30;94215.00;;;16.19;100.00
12775;BME280;6451;42.630;23.382;2022-09-12T06:10:59;94190.78;;;16.31;100.00
12775;BME280;6451;42.630;23.382;2022-09-12T06:13:26;94213.53;;;16.53;100.00
12775;BME280;6451;42.630;23.382;2022-09-12T06:15:53;94221.84;;;16.75;100.00
12775;BME280;6451;42.630;23.382;2022-09-12T06:18:21;94210.88;;;16.78;100.00
12775;BME280;6451;42.630;23.382;2022-09-12T06:20:49;94216.41;;;16.92;100.00
12775;BME280;6451;42.630;23.382;2022-09-12T06:23:16;94214.44;;;16.89;100.00
12775;BME280;6451;42.630;23.382;2022-09-12T06:25:48;94216.00;;;16.90;100.00
12775;BME280;6451;42.630;23.382;2022-09-12T06:28:16;94208.94;;;16.82;100.00
12775;BME280;6451;42.630;23.382;2022-09-12T06:30:44;94221.47;;;16.83;100.00
12775;BME280;6451;42.630;23.382;2022-09-12T06:33:11;94216.38;;;16.78;100.00
12775;BME280;6451;42.630;23.382;2022-09-12T06:35:38;94217.97;;;16.79;100.00
12775;BME280;6451;42.630;23.382;2022-09-12T06:38:04;94221.47;;;16.76;100.00
12775;BME280;6451;42.630;23.382;2022-09-12T06:40:32;94219.84;;;16.64;100.00
12775;BME280;6451;42.630;23.382;2022-09-12T06:43:00;94250.72;;;16.51;100.00
12775;BME280;6451;42.630;23.382;2022-09-12T06:45:27;94233.09;;;16.48;100.00
12775;BME280;6451;42.630;23.382;2022-09-12T06:47:54;94255.00;;;16.45;100.00
12775;BME280;6451;42.630;23.382;2022-09-12T06:50:21;94254.19;;;16.37;100.00
12775;BME280;6451;42.630;23.382;2022-09-12T06:52:49;94248.31;;;16.35;100.00
12775;BME280;6451;42.630;23.382;2022-09-12T06:55:16;94259.31;;;16.42;100.00
12775;BME280;6451;42.630;23.382;2022-09-12T06:57:46;94245.19;;;16.36;100.00
12775;BME280;6451;42.630;23.382;2022-09-12T07:00:15;94249.19;;;16.57;100.00
12775;BME280;6451;42.630;23.382;2022-09-12T07:02:42;94249.16;;;16.53;100.00
12775;BME280;6451;42.630;23.382;2022-09-12T07:05:12;94261.69;;;16.54;100.00
12775;BME280;6451;42.630;23.382;2022-09-12T07:07:39;94254.38;;;16.80;100.00
12775;BME280;6451;42.630;23.382;2022-09-12T07:10:07;94255.94;;;16.88;100.00
12775;BME280;6451;42.630;23.382;2022-09-12T07:12:36;94255.88;;;16.70;100.00
12775;BME280;6451;42.630;23.382;2022-09-12T07:15:03;94253.81;;;16.42;100.00
12775;BME280;6451;42.630;23.382;2022-09-12T07:17:32;94268.34;;;16.57;100.00
12775;BME280;6451;42.630;23.382;2022-09-12T07:19:59;94275.91;;;16.81;100.00
12775;BME280;6451;42.630;23.382;2022-09-12T07:22:26;94273.19;;;16.95;100.00
12775;BME280;6451;42.630;23.382;2022-09-12T07:24:54;94254.81;;;17.10;100.00
12775;BME280;6451;42.630;23.382;2022-09-12T07:27:24;94268.84;;;16.84;100.00
12775;BME280;6451;42.630;23.382;2022-09-12T07:29:52;94250.47;;;16.99;100.00
12775;BME280;6451;42.630;23.382;2022-09-12T07:32:19;94268.13;;;17.22;100.00
12775;BME280;6451;42.630;23.382;2022-09-12T07:34:49;94270.88;;;17.40;100.00
12775;BME280;6451;42.630;23.382;2022-09-12T07:37:16;94266.59;;;17.57;100.00
12775;BME280;6451;42.630;23.382;2022-09-12T07:39:43;94269.72;;;17.45;100.00
12775;BME280;6451;42.630;23.382;2022-09-12T07:42:10;94275.22;;;17.48;100.00
12775;BME280;6451;42.630;23.382;2022-09-12T07:44:37;94253.66;;;17.33;100.00
12775;BME280;6451;42.630;23.382;2022-09-12T07:47:04;94276.38;;;17.30;100.00
12775;BME280;6451;42.630;23.382;2022-09-12T07:49:31;94266.59;;;17.43;100.00
12775;BME280;6451;42.630;23.382;2022-09-12T07:52:01;94273.25;;;17.38;100.00
12775;BME280;6451;42.630;23.382;2022-09-12T07:54:29;94263.06;;;17.32;100.00
12775;BME280;6451;42.630;23.382;2022-09-12T07:56:57;94247.78;;;17.20;100.00
12775;BME280;6451;42.630;23.382;2022-09-12T07:59:24;94261.47;;;17.31;100.00
12775;BME280;6451;42.630;23.382;2022-09-12T08:01:53;94258.34;;;17.25;100.00
12775;BME280;6451;42.630;23.382;2022-09-12T08:04:21;94236.41;;;17.36;100.00
12775;BME280;6451;42.630;23.382;2022-09-12T08:06:50;94259.91;;;17.69;100.00
12775;BME280;6451;42.630;23.382;2022-09-12T08:09:19;94275.19;;;17.70;100.00
12775;BME280;6451;42.630;23.382;2022-09-12T08:11:46;94254.84;;;17.60;100.00
12775;BME280;6451;42.630;23.382;2022-09-12T08:14:12;94270.13;;;17.93;100.00
12775;BME280;6451;42.630;23.382;2022-09-12T08:16:42;94270.13;;;17.97;100.00
12775;BME280;6451;42.630;23.382;2022-09-12T08:19:09;94273.22;;;18.20;100.00
12775;BME280;6451;42.630;23.382;2022-09-12T08:21:37;94273.66;;;17.90;100.00
12775;BME280;6451;42.630;23.382;2022-09-12T08:24:05;94170.19;;;17.23;100.00
12775;BME280;6451;42.630;23.382;2022-09-12T08:26:35;94276.78;;;18.03;100.00
12775;BME280;6451;42.630;23.382;2022-09-12T08:29:03;94268.91;;;18.12;100.00
12775;BME280;6451;42.630;23.382;2022-09-12T08:31:30;94239.16;;;17.86;100.00
12775;BME280;6451;42.630;23.382;2022-09-12T08:34:01;94265.72;;;18.31;100.00
12775;BME280;6451;42.630;23.382;2022-09-12T08:36:28;94251.56;;;18.44;100.00
12775;BME280;6451;42.630;23.382;2022-09-12T08:38:56;94233.59;;;18.14;100.00
12775;BME280;6451;42.630;23.382;2022-09-12T08:41:28;94256.38;;;18.11;100.00
12775;BME280;6451;42.630;23.382;2022-09-12T08:44:11;94257.03;;;18.40;100.00
12775;BME280;6451;42.630;23.382;2022-09-12T08:46:47;94250.81;;;18.29;100.00
12775;BME280;6451;42.630;23.382;2022-09-12T08:49:24;94266.13;;;18.33;100.00
12775;BME280;6451;42.630;23.382;2022-09-12T08:51:53;94242.19;;;18.34;100.00
12775;BME280;6451;42.630;23.382;2022-09-12T08:54:24;94269.19;;;18.50;100.00
12775;BME280;6451;42.630;23.382;2022-09-12T08:56:54;94260.19;;;18.46;100.00
12775;BME280;6451;42.630;23.382;2022-09-12T08:59:24;94258.31;;;18.14;100.00
12775;BME280;6451;42.630;23.382;2022-09-12T09:01:55;94272.06;;;18.00;100.00
12775;BME280;6451;42.630;23.382;2022-09-12T09:04:36;94264.22;;;18.05;100.00
12775;BME280;6451;42.630;23.382;2022-09-12T09:07:30;94251.31;;;17.88;100.00
12775;BME280;6451;42.630;23.382;2022-09-12T09:10:09;94163.94;;;17.22;100.00
12775;BME280;6451;42.630;23.382;2022-09-12T09:12:46;94223.50;;;17.79;100.00
12775;BME280;6451;42.630;23.382;2022-09-12T09:15:31;94260.66;;;18.26;100.00
12775;BME280;6451;42.630;23.382;2022-09-12T09:18:03;94264.16;;;18.30;100.00
12775;BME280;6451;42.630;23.382;2022-09-12T09:20:39;94237.53;;;18.13;100.00
12775;BME280;6451;42.630;23.382;2022-09-12T09:23:12;94239.91;;;18.00;100.00
12775;BME280;6451;42.630;23.382;2022-09-12T09:25:46;94239.84;;;18.25;100.00
12775;BME280;6451;42.630;23.382;2022-09-12T09:28:19;94233.63;;;18.11;100.00
12775;BME280;6451;42.630;23.382;2022-09-12T09:30:49;94224.59;;;18.06;100.00
12775;BME280;6451;42.630;23.382;2022-09-12T09:33:21;94250.41;;;18.38;100.00
12775;BME280;6451;42.630;23.382;2022-09-12T09:35:55;94246.88;;;18.37;100.00
12775;BME280;6451;42.630;23.382;2022-09-12T09:38:33;94236.94;;;18.61;100.00
12775;BME280;6451;42.630;23.382;2022-09-12T09:41:19;94201.22;;;18.68;100.00
12775;BME280;6451;42.630;23.382;2022-09-12T09:43:48;94222.13;;;19.17;100.00
12775;BME280;6451;42.630;23.382;2022-09-12T09:46:17;94230.19;;;18.87;100.00
12775;BME280;6451;42.630;23.382;2022-09-12T09:48:46;94115.47;;;18.21;100.00
12775;BME280;6451;42.630;23.382;2022-09-12T09:51:16;94226.94;;;19.03;100.00
12775;BME280;6451;42.630;23.382;2022-09-12T09:53:49;94214.03;;;18.93;100.00
12775;BME280;6451;42.630;23.382;2022-09-12T09:56:27;94207.41;;;18.83;100.00
12775;BME280;6451;42.630;23.382;2022-09-12T09:59:07;94208.16;;;18.91;100.00
12775;BME280;6451;42.630;23.382;2022-09-12T10:01:36;94210.03;;;19.01;100.00
12775;BME280;6451;42.630;23.382;2022-09-12T10:04:03;94201.44;;;18.99;100.00
12775;BME280;6451;42.630;23.382;2022-09-12T10:06:31;94193.22;;;18.92;100.00
12775;BME280;6451;42.630;23.382;2022-09-12T10:09:17;94212.50;;;18.88;100.00
12775;BME280;6451;42.630;23.382;2022-09-12T10:11:46;94211.44;;;18.68;100.00
12775;BME280;6451;42.630;23.382;2022-09-12T10:14:29;94199.50;;;18.96;100.00
12775;BME280;6451;42.630;23.382;2022-09-12T10:16:57;94199.13;;;18.90;100.00
12775;BME280;6451;42.630;23.382;2022-09-12T10:19:32;94203.38;;;18.98;100.00
12775;BME280;6451;42.630;23.382;2022-09-12T10:22:00;94206.00;;;19.16;100.00
12775;BME280;6451;42.630;23.382;2022-09-12T10:24:32;94197.47;;;19.00;100.00
12775;BME280;6451;42.630;23.382;2022-09-12T10:27:07;94215.31;;;18.74;100.00
12775;BME280;6451;42.630;23.382;2022-09-12T10:29:40;94226.31;;;18.74;100.00
12775;BME280;6451;42.630;23.382;2022-09-12T10:32:20;94201.59;;;18.74;100.00
12775;BME280;6451;42.630;23.382;2022-09-12T10:34:47;94182.59;;;18.94;100.00
12775;BME280;6451;42.630;23.382;2022-09-12T10:37:23;94217.88;;;19.06;100.00
12775;BME280;6451;42.630;23.382;2022-09-12T10:39:54;94201.28;;;19.16;100.00
12775;BME280;6451;42.630;23.382;2022-09-12T10:42:46;94218.19;;;19.15;100.00
12775;BME280;6451;42.630;23.382;2022-09-12T10:45:23;94204.44;;;19.19;100.00
12775;BME280;6451;42.630;23.382;2022-09-12T10:47:52;94219.66;;;19.30;100.00
12775;BME280;6451;42.630;23.382;2022-09-12T10:50:22;94196.94;;;19.23;100.00
12775;BME280;6451;42.630;23.382;2022-09-12T10:52:50;94167.69;;;18.91;100.00
12775;BME280;6451;42.630;23.382;2022-09-12T10:55:21;94195.03;;;19.12;100.00
12775;BME280;6451;42.630;23.382;2022-09-12T10:58:07;94216.38;;;18.98;100.00
12775;BME280;6451;42.630;23.382;2022-09-12T11:00:45;94163.56;;;18.58;100.00
12775;BME280;6451;42.630;23.382;2022-09-12T11:03:22;94195.47;;;19.11;100.00
12775;BME280;6451;42.630;23.382;2022-09-12T11:05:54;94189.69;;;19.43;100.00
12775;BME280;6451;42.630;23.382;2022-09-12T11:08:53;94205.38;;;19.50;97.34
12775;BME280;6451;42.630;23.382;2022-09-12T11:11:35;94198.66;;;19.58;99.75
12775;BME280;6451;42.630;23.382;2022-09-12T11:14:12;94202.59;;;19.57;100.00
12775;BME280;6451;42.630;23.382;2022-09-12T11:16:49;94200.28;;;19.48;100.00
12775;BME280;6451;42.630;23.382;2022-09-12T11:19:37;94200.41;;;19.34;100.00
12775;BME280;6451;42.630;23.382;2022-09-12T11:22:25;94196.50;;;19.76;99.44
12775;BME280;6451;42.630;23.382;2022-09-12T11:25:26;94189.72;;;19.84;100.00
12775;BME280;6451;42.630;23.382;2022-09-12T11:28:13;94203.34;;;19.98;99.17
12775;BME280;6451;42.630;23.382;2022-09-12T11:30:54;94182.72;;;19.76;98.99
12775;BME280;6451;42.630;23.382;2022-09-12T11:33:43;94205.44;;;19.42;97.52
12775;BME280;6451;42.630;23.382;2022-09-12T11:36:26;94201.59;;;19.29;100.00
12775;BME280;6451;42.630;23.382;2022-09-12T11:39:01;94185.97;;;19.15;99.17
12775;BME280;6451;42.630;23.382;2022-09-12T11:41:34;94199.03;;;19.56;100.00
12775;BME280;6451;42.630;23.382;2022-09-12T11:44:11;94118.28;;;19.29;96.90
12775;BME280;6451;42.630;23.382;2022-09-12T11:46:42;94181.66;;;19.66;95.38
12775;BME280;6451;42.630;23.382;2022-09-12T11:49:18;94197.56;;;19.89;97.47
12775;BME280;6451;42.630;23.382;2022-09-12T11:51:51;94200.72;;;19.88;98.32
12775;BME280;6451;42.630;23.382;2022-09-12T11:54:23;94167.94;;;19.11;100.00
12775;BME280;6451;42.630;23.382;2022-09-12T11:56:57;94215.31;;;19.36;100.00
12775;BME280;6451;42.630;23.382;2022-09-12T11:59:31;94180.94;;;19.10;100.00
12775;BME280;6451;42.630;23.382;2022-09-12T12:02:02;94215.22;;;18.92;100.00
12775;BME280;6451;42.630;23.382;2022-09-12T12:04:35;94213.22;;;18.99;100.00
12775;BME280;6451;42.630;23.382;2022-09-12T12:07:06;94188.78;;;19.08;100.00
12775;BME280;6451;42.630;23.382;2022-09-12T12:09:44;94197.59;;;19.41;100.00
12775;BME280;6451;42.630;23.382;2022-09-12T12:12:17;94211.66;;;19.47;100.00
12775;BME280;6451;42.630;23.382;2022-09-12T12:14:48;94194.63;;;19.17;100.00
12775;BME280;6451;42.630;23.382;2022-09-12T12:17:19;94200.13;;;19.17;100.00
12775;BME280;6451;42.630;23.382;2022-09-12T12:19:56;94195.63;;;19.41;100.00
12775;BME280;6451;42.630;23.382;2022-09-12T12:22:26;94190.59;;;19.29;100.00
12775;BME280;6451;42.630;23.382;2022-09-12T12:25:03;94193.91;;;19.55;100.00
12775;BME280;6451;42.630;23.382;2022-09-12T12:27:51;94192.94;;;19.79;99.09
12775;BME280;6451;42.630;23.382;2022-09-12T12:33:53;94194.38;;;19.50;100.00
12775;BME280;6451;42.630;23.382;2022-09-12T12:36:34;94186.06;;;19.53;100.00
12775;BME280;6451;42.630;23.382;2022-09-12T12:46:01;94194.03;;;18.85;100.00
12775;BME280;6451;42.630;23.382;2022-09-12T12:48:32;94202.69;;;18.83;100.00
12775;BME280;6451;42.630;23.382;2022-09-12T12:51:16;94195.69;;;18.79;100.00
12775;BME280;6451;42.630;23.382;2022-09-12T12:53:48;94205.56;;;18.58;100.00
12775;BME280;6451;42.630;23.382;2022-09-12T12:56:27;94187.38;;;18.82;100.00
12775;BME280;6451;42.630;23.382;2022-09-12T12:58:59;94186.91;;;18.98;100.00
12775;BME280;6451;42.630;23.382;2022-09-12T13:01:29;94197.31;;;19.25;100.00
12775;BME280;6451;42.630;23.382;2022-09-12T13:03:59;94205.38;;;19.50;100.00
12775;BME280;6451;42.630;23.382;2022-09-12T13:06:32;94199.03;;;19.53;100.00
12775;BME280;6451;42.630;23.382;2022-09-12T13:09:02;94195.03;;;19.64;100.00
12775;BME280;6451;42.630;23.382;2022-09-12T13:11:32;94210.66;;;19.75;99.62
12775;BME280;6451;42.630;23.382;2022-09-12T13:14:01;94204.81;;;19.69;100.00
12775;BME280;6451;42.630;23.382;2022-09-12T13:16:32;94196.69;;;19.96;100.00
12775;BME280;6451;42.630;23.382;2022-09-12T13:19:07;94206.72;;;19.79;100.00
12775;BME280;6451;42.630;23.382;2022-09-12T13:21:38;94206.59;;;19.90;100.00
12775;BME280;6451;42.630;23.382;2022-09-12T13:24:22;94198.13;;;20.08;98.63
12775;BME280;6451;42.630;23.382;2022-09-12T13:26:49;94195.84;;;20.03;99.20